sensor_id;sensor_type;location;lat;lon;timestamp;P1;durP1;ratioP1;P2;durP2;ratioP2
65552;SDS011;52465;51.560;14.368;2023-03-12T00:00:15;9.93;;;9.23;;
65552;SDS011;52465;51.560;14.368;2023-03-12T00:02:55;9.18;;;8.57;;
65552;SDS011;52465;51.560;14.368;2023-03-12T00:05:31;8.90;;;8.27;;
65552;SDS011;52465;51.560;14.368;2023-03-12T00:08:09;8.98;;;8.38;;
65552;SDS011;52465;51.560;14.368;2023-03-12T00:10:52;9.05;;;8.38;;
65552;SDS011;52465;51.560;14.368;2023-03-12T00:13:17;9.52;;;8.82;;
65552;SDS011;52465;51.560;14.368;2023-03-12T00:16:16;8.70;;;8.20;;
65552;SDS011;52465;51.560;14.368;2023-03-12T00:18:46;9.05;;;8.50;;
65552;SDS011;52465;51.560;14.368;2023-03-12T00:21:12;9.02;;;8.43;;
65552;SDS011;52465;51.560;14.368;2023-03-12T00:23:38;8.50;;;8.00;;
65552;SDS011;52465;51.560;14.368;2023-03-12T00:26:04;9.05;;;8.55;;
65552;SDS011;52465;51.560;14.368;2023-03-12T00:28:32;8.75;;;8.25;;
65552;SDS011;52465;51.560;14.368;2023-03-12T00:30:59;9.00;;;8.40;;
65552;SDS011;52465;51.560;14.368;2023-03-12T00:33:26;9.68;;;8.73;;
65552;SDS011;52465;51.560;14.368;2023-03-12T00:35:53;9.65;;;9.02;;
65552;SDS011;52465;51.560;14.368;2023-03-12T00:38:20;9.10;;;8.57;;
65552;SDS011;52465;51.560;14.368;2023-03-12T00:40:46;8.93;;;8.43;;
65552;SDS011;52465;51.560;14.368;2023-03-12T00:43:12;9.50;;;8.80;;
65552;SDS011;52465;51.560;14.368;2023-03-12T00:45:39;8.80;;;8.20;;
65552;SDS011;52465;51.560;14.368;2023-03-12T00:48:05;9.23;;;8.52;;
65552;SDS011;52465;51.560;14.368;2023-03-12T00:50:33;8.77;;;8.25;;
65552;SDS011;52465;51.560;14.368;2023-03-12T00:52:59;9.73;;;8.93;;
65552;SDS011;52465;51.560;14.368;2023-03-12T00:55:25;8.65;;;8.13;;
65552;SDS011;52465;51.560;14.368;2023-03-12T00:57:51;8.70;;;8.20;;
65552;SDS011;52465;51.560;14.368;2023-03-12T01:00:17;8.80;;;8.20;;
65552;SDS011;52465;51.560;14.368;2023-03-12T01:02:42;8.55;;;8.05;;
65552;SDS011;52465;51.560;14.368;2023-03-12T01:05:10;8.75;;;8.18;;
65552;SDS011;52465;51.560;14.368;2023-03-12T01:07:37;8.75;;;8.15;;
65552;SDS011;52465;51.560;14.368;2023-03-12T01:10:03;8.80;;;8.30;;
65552;SDS011;52465;51.560;14.368;2023-03-12T01:12:29;9.05;;;8.52;;
65552;SDS011;52465;51.560;14.368;2023-03-12T01:14:55;8.98;;;8.38;;
65552;SDS011;52465;51.560;14.368;2023-03-12T01:17:20;8.35;;;7.85;;
65552;SDS011;52465;51.560;14.368;2023-03-12T01:19:49;9.15;;;8.55;;
65552;SDS011;52465;51.560;14.368;2023-03-12T01:22:14;9.20;;;8.63;;
65552;SDS011;52465;51.560;14.368;2023-03-12T01:24:39;8.38;;;7.88;;
65552;SDS011;52465;51.560;14.368;2023-03-12T01:27:05;8.90;;;8.30;;
65552;SDS011;52465;51.560;14.368;2023-03-12T01:29:33;9.02;;;8.43;;
65552;SDS011;52465;51.560;14.368;2023-03-12T01:31:58;9.02;;;8.43;;
65552;SDS011;52465;51.560;14.368;2023-03-12T01:34:26;8.88;;;8.27;;
65552;SDS011;52465;51.560;14.368;2023-03-12T01:36:52;8.95;;;8.35;;
65552;SDS011;52465;51.560;14.368;2023-03-12T01:39:17;8.75;;;8.02;;
65552;SDS011;52465;51.560;14.368;2023-03-12T01:41:45;8.48;;;7.97;;
65552;SDS011;52465;51.560;14.368;2023-03-12T01:44:13;8.82;;;8.18;;
65552;SDS011;52465;51.560;14.368;2023-03-12T01:46:39;8.70;;;8.20;;
65552;SDS011;52465;51.560;14.368;2023-03-12T01:51:58;8.87;;;8.23;;
65552;SDS011;52465;51.560;14.368;2023-03-12T01:57:26;8.13;;;7.63;;
65552;SDS011;52465;51.560;14.368;2023-03-12T02:00:04;8.63;;;8.05;;
65552;SDS011;52465;51.560;14.368;2023-03-12T02:02:33;8.48;;;7.97;;
65552;SDS011;52465;51.560;14.368;2023-03-12T02:05:02;8.70;;;8.20;;
65552;SDS011;52465;51.560;14.368;2023-03-12T02:07:33;8.30;;;7.90;;
65552;SDS011;52465;51.560;14.368;2023-03-12T02:09:59;8.90;;;8.30;;
65552;SDS011;52465;51.560;14.368;2023-03-12T02:12:26;8.65;;;8.15;;
65552;SDS011;52465;51.560;14.368;2023-03-12T02:14:51;8.55;;;8.05;;
65552;SDS011;52465;51.560;14.368;2023-03-12T02:17:17;8.35;;;7.85;;
65552;SDS011;52465;51.560;14.368;2023-03-12T02:19:50;9.23;;;8.63;;
65552;SDS011;52465;51.560;14.368;2023-03-12T02:22:19;8.45;;;7.95;;
65552;SDS011;52465;51.560;14.368;2023-03-12T02:27:21;8.40;;;7.90;;
65552;SDS011;52465;51.560;14.368;2023-03-12T02:29:50;9.25;;;8.65;;
65552;SDS011;52465;51.560;14.368;2023-03-12T02:32:17;8.77;;;8.27;;
65552;SDS011;52465;51.560;14.368;2023-03-12T02:34:47;8.23;;;7.72;;
65552;SDS011;52465;51.560;14.368;2023-03-12T02:37:16;7.80;;;7.40;;
65552;SDS011;52465;51.560;14.368;2023-03-12T02:39:43;8.55;;;7.97;;
65552;SDS011;52465;51.560;14.368;2023-03-12T02:42:21;8.60;;;8.00;;
65552;SDS011;52465;51.560;14.368;2023-03-12T02:44:49;8.10;;;7.53;;
65552;SDS011;52465;51.560;14.368;2023-03-12T02:47:15;8.88;;;8.35;;
65552;SDS011;52465;51.560;14.368;2023-03-12T02:49:41;8.95;;;8.45;;
65552;SDS011;52465;51.560;14.368;2023-03-12T02:52:07;8.95;;;8.35;;
65552;SDS011;52465;51.560;14.368;2023-03-12T02:54:34;8.68;;;7.97;;
65552;SDS011;52465;51.560;14.368;2023-03-12T02:57:02;8.10;;;7.60;;
65552;SDS011;52465;51.560;14.368;2023-03-12T02:59:28;8.23;;;7.70;;
65552;SDS011;52465;51.560;14.368;2023-03-12T03:01:54;8.45;;;7.95;;
65552;SDS011;52465;51.560;14.368;2023-03-12T03:04:21;8.77;;;8.18;;
65552;SDS011;52465;51.560;14.368;2023-03-12T03:06:47;7.80;;;7.40;;
65552;SDS011;52465;51.560;14.368;2023-03-12T03:09:15;8.80;;;8.20;;
65552;SDS011;52465;51.560;14.368;2023-03-12T03:11:41;8.82;;;8.32;;
65552;SDS011;52465;51.560;14.368;2023-03-12T03:14:06;8.40;;;7.90;;
65552;SDS011;52465;51.560;14.368;2023-03-12T03:16:32;8.60;;;8.00;;
65552;SDS011;52465;51.560;14.368;2023-03-12T03:18:58;8.60;;;8.10;;
65552;SDS011;52465;51.560;14.368;2023-03-12T03:21:23;8.43;;;7.82;;
65552;SDS011;52465;51.560;14.368;2023-03-12T03:23:49;8.50;;;7.97;;
65552;SDS011;52465;51.560;14.368;2023-03-12T03:26:19;8.15;;;7.65;;
65552;SDS011;52465;51.560;14.368;2023-03-12T03:28:46;8.07;;;7.63;;
65552;SDS011;52465;51.560;14.368;2023-03-12T03:31:11;8.55;;;8.05;;
65552;SDS011;52465;51.560;14.368;2023-03-12T03:33:38;8.52;;;7.93;;
65552;SDS011;52465;51.560;14.368;2023-03-12T03:36:08;8.70;;;8.20;;
65552;SDS011;52465;51.560;14.368;2023-03-12T03:38:35;8.30;;;7.80;;
65552;SDS011;52465;51.560;14.368;2023-03-12T03:41:01;8.02;;;7.63;;
65552;SDS011;52465;51.560;14.368;2023-03-12T03:43:28;8.20;;;7.63;;
65552;SDS011;52465;51.560;14.368;2023-03-12T03:48:30;8.30;;;7.70;;
65552;SDS011;52465;51.560;14.368;2023-03-12T03:51:02;8.48;;;7.82;;
65552;SDS011;52465;51.560;14.368;2023-03-12T03:53:29;8.25;;;7.75;;
65552;SDS011;52465;51.560;14.368;2023-03-12T03:55:55;8.70;;;8.07;;
65552;SDS011;52465;51.560;14.368;2023-03-12T03:58:20;8.45;;;7.95;;
65552;SDS011;52465;51.560;14.368;2023-03-12T04:00:46;8.65;;;8.15;;
65552;SDS011;52465;51.560;14.368;2023-03-12T04:03:12;8.55;;;8.05;;
65552;SDS011;52465;51.560;14.368;2023-03-12T04:05:38;8.45;;;7.95;;
65552;SDS011;52465;51.560;14.368;2023-03-12T04:08:10;8.55;;;7.93;;
65552;SDS011;52465;51.560;14.368;2023-03-12T04:10:37;8.75;;;8.25;;
65552;SDS011;52465;51.560;14.368;2023-03-12T04:13:03;8.57;;;8.07;;
65552;SDS011;52465;51.560;14.368;2023-03-12T04:15:28;8.35;;;7.95;;
65552;SDS011;52465;51.560;14.368;2023-03-12T04:17:54;8.30;;;7.85;;
65552;SDS011;52465;51.560;14.368;2023-03-12T04:20:19;8.65;;;8.05;;
65552;SDS011;52465;51.560;14.368;2023-03-12T04:22:47;8.48;;;7.97;;
65552;SDS011;52465;51.560;14.368;2023-03-12T04:25:12;8.50;;;8.00;;
65552;SDS011;52465;51.560;14.368;2023-03-12T04:27:38;8.30;;;7.80;;
65552;SDS011;52465;51.560;14.368;2023-03-12T04:30:04;8.25;;;7.75;;
65552;SDS011;52465;51.560;14.368;2023-03-12T04:32:29;8.63;;;8.02;;
65552;SDS011;52465;51.560;14.368;2023-03-12T04:35:16;7.63;;;7.22;;
65552;SDS011;52465;51.560;14.368;2023-03-12T04:37:41;8.25;;;7.85;;
65552;SDS011;52465;51.560;14.368;2023-03-12T04:40:07;8.75;;;8.15;;
65552;SDS011;52465;51.560;14.368;2023-03-12T04:42:34;8.48;;;8.00;;
65552;SDS011;52465;51.560;14.368;2023-03-12T04:45:04;7.88;;;7.38;;
65552;SDS011;52465;51.560;14.368;2023-03-12T04:47:30;8.50;;;8.00;;
65552;SDS011;52465;51.560;14.368;2023-03-12T04:49:57;8.00;;;7.50;;
65552;SDS011;52465;51.560;14.368;2023-03-12T04:52:24;8.32;;;7.82;;
65552;SDS011;52465;51.560;14.368;2023-03-12T04:54:52;8.07;;;7.55;;
65552;SDS011;52465;51.560;14.368;2023-03-12T04:57:18;8.05;;;7.55;;
65552;SDS011;52465;51.560;14.368;2023-03-12T04:59:44;7.55;;;7.15;;
65552;SDS011;52465;51.560;14.368;2023-03-12T05:02:10;7.50;;;7.10;;
65552;SDS011;52465;51.560;14.368;2023-03-12T05:04:38;8.18;;;7.68;;
65552;SDS011;52465;51.560;14.368;2023-03-12T05:07:04;8.52;;;8.00;;
65552;SDS011;52465;51.560;14.368;2023-03-12T05:09:30;8.23;;;7.72;;
65552;SDS011;52465;51.560;14.368;2023-03-12T05:11:56;8.55;;;8.05;;
65552;SDS011;52465;51.560;14.368;2023-03-12T05:14:22;8.45;;;7.90;;
65552;SDS011;52465;51.560;14.368;2023-03-12T05:16:48;8.68;;;8.23;;
65552;SDS011;52465;51.560;14.368;2023-03-12T05:19:15;8.68;;;8.07;;
65552;SDS011;52465;51.560;14.368;2023-03-12T05:21:41;8.23;;;7.72;;
65552;SDS011;52465;51.560;14.368;2023-03-12T05:24:08;8.05;;;7.65;;
65552;SDS011;52465;51.560;14.368;2023-03-12T05:26:34;8.48;;;7.88;;
65552;SDS011;52465;51.560;14.368;2023-03-12T05:29:00;8.30;;;7.75;;
65552;SDS011;52465;51.560;14.368;2023-03-12T05:31:26;8.35;;;7.95;;
65552;SDS011;52465;51.560;14.368;2023-03-12T05:33:56;8.00;;;7.60;;
65552;SDS011;52465;51.560;14.368;2023-03-12T05:36:23;8.23;;;7.72;;
65552;SDS011;52465;51.560;14.368;2023-03-12T05:38:49;7.80;;;7.40;;
65552;SDS011;52465;51.560;14.368;2023-03-12T05:41:19;8.13;;;7.63;;
65552;SDS011;52465;51.560;14.368;2023-03-12T05:43:51;8.40;;;8.00;;
65552;SDS011;52465;51.560;14.368;2023-03-12T05:46:18;8.45;;;8.05;;
65552;SDS011;52465;51.560;14.368;2023-03-12T05:48:47;8.13;;;7.70;;
65552;SDS011;52465;51.560;14.368;2023-03-12T05:51:13;7.88;;;7.47;;
65552;SDS011;52465;51.560;14.368;2023-03-12T05:53:39;8.15;;;7.60;;
65552;SDS011;52465;51.560;14.368;2023-03-12T05:56:06;7.95;;;7.35;;
65552;SDS011;52465;51.560;14.368;2023-03-12T05:58:33;8.30;;;7.80;;
65552;SDS011;52465;51.560;14.368;2023-03-12T06:01:00;8.13;;;7.72;;
65552;SDS011;52465;51.560;14.368;2023-03-12T06:03:26;8.32;;;7.93;;
65552;SDS011;52465;51.560;14.368;2023-03-12T06:05:52;8.63;;;8.10;;
65552;SDS011;52465;51.560;14.368;2023-03-12T06:08:21;8.23;;;7.72;;
65552;SDS011;52465;51.560;14.368;2023-03-12T06:10:51;8.27;;;7.88;;
65552;SDS011;52465;51.560;14.368;2023-03-12T06:13:20;8.27;;;7.85;;
65552;SDS011;52465;51.560;14.368;2023-03-12T06:15:46;7.85;;;7.43;;
65552;SDS011;52465;51.560;14.368;2023-03-12T06:18:12;8.13;;;7.72;;
65552;SDS011;52465;51.560;14.368;2023-03-12T06:20:38;8.25;;;7.82;;
65552;SDS011;52465;51.560;14.368;2023-03-12T06:23:06;8.13;;;7.63;;
65552;SDS011;52465;51.560;14.368;2023-03-12T06:25:32;8.63;;;7.93;;
65552;SDS011;52465;51.560;14.368;2023-03-12T06:27:58;8.63;;;8.02;;
65552;SDS011;52465;51.560;14.368;2023-03-12T06:30:26;8.55;;;8.05;;
65552;SDS011;52465;51.560;14.368;2023-03-12T06:32:52;8.00;;;7.60;;
65552;SDS011;52465;51.560;14.368;2023-03-12T06:35:18;8.90;;;8.30;;
65552;SDS011;52465;51.560;14.368;2023-03-12T06:37:46;8.52;;;7.93;;
65552;SDS011;52465;51.560;14.368;2023-03-12T06:40:12;8.45;;;8.00;;
65552;SDS011;52465;51.560;14.368;2023-03-12T06:42:37;8.90;;;8.40;;
65552;SDS011;52465;51.560;14.368;2023-03-12T06:45:22;8.18;;;7.78;;
65552;SDS011;52465;51.560;14.368;2023-03-12T06:47:48;8.10;;;7.70;;
65552;SDS011;52465;51.560;14.368;2023-03-12T06:50:14;8.27;;;7.78;;
65552;SDS011;52465;51.560;14.368;2023-03-12T06:52:39;7.75;;;7.35;;
65552;SDS011;52465;51.560;14.368;2023-03-12T06:55:05;8.15;;;7.75;;
65552;SDS011;52465;51.560;14.368;2023-03-12T06:57:31;7.95;;;7.45;;
65552;SDS011;52465;51.560;14.368;2023-03-12T06:59:59;8.23;;;7.72;;
65552;SDS011;52465;51.560;14.368;2023-03-12T07:02:24;7.70;;;7.30;;
65552;SDS011;52465;51.560;14.368;2023-03-12T07:04:49;7.97;;;7.57;;
65552;SDS011;52465;51.560;14.368;2023-03-12T07:07:15;8.02;;;7.53;;
65552;SDS011;52465;51.560;14.368;2023-03-12T07:09:41;8.20;;;7.65;;
65552;SDS011;52465;51.560;14.368;2023-03-12T07:12:07;8.23;;;7.63;;
65552;SDS011;52465;51.560;14.368;2023-03-12T07:14:33;8.38;;;7.80;;
65552;SDS011;52465;51.560;14.368;2023-03-12T07:16:58;8.68;;;7.95;;
65552;SDS011;52465;51.560;14.368;2023-03-12T07:19:27;8.70;;;7.90;;
65552;SDS011;52465;51.560;14.368;2023-03-12T07:21:54;7.97;;;7.57;;
65552;SDS011;52465;51.560;14.368;2023-03-12T07:24:20;8.18;;;7.68;;
65552;SDS011;52465;51.560;14.368;2023-03-12T07:29:29;7.78;;;7.38;;
65552;SDS011;52465;51.560;14.368;2023-03-12T07:31:55;7.78;;;7.38;;
65552;SDS011;52465;51.560;14.368;2023-03-12T07:34:24;7.90;;;7.50;;
65552;SDS011;52465;51.560;14.368;2023-03-12T07:36:52;7.80;;;7.40;;
65552;SDS011;52465;51.560;14.368;2023-03-12T07:39:21;8.43;;;7.93;;
65552;SDS011;52465;51.560;14.368;2023-03-12T07:41:47;7.93;;;7.53;;
65552;SDS011;52465;51.560;14.368;2023-03-12T07:44:13;8.07;;;7.63;;
65552;SDS011;52465;51.560;14.368;2023-03-12T07:46:39;7.85;;;7.45;;
65552;SDS011;52465;51.560;14.368;2023-03-12T07:49:04;8.13;;;7.72;;
65552;SDS011;52465;51.560;14.368;2023-03-12T07:51:48;7.93;;;7.53;;
65552;SDS011;52465;51.560;14.368;2023-03-12T07:54:16;7.70;;;7.30;;
65552;SDS011;52465;51.560;14.368;2023-03-12T07:56:42;7.82;;;7.32;;
65552;SDS011;52465;51.560;14.368;2023-03-12T07:59:08;7.97;;;7.57;;
65552;SDS011;52465;51.560;14.368;2023-03-12T08:01:33;7.82;;;7.43;;
65552;SDS011;52465;51.560;14.368;2023-03-12T08:03:59;8.27;;;7.80;;
65552;SDS011;52465;51.560;14.368;2023-03-12T08:06:27;7.90;;;7.40;;
65552;SDS011;52465;51.560;14.368;2023-03-12T08:08:53;8.25;;;7.85;;
65552;SDS011;52465;51.560;14.368;2023-03-12T08:11:21;8.40;;;7.90;;
65552;SDS011;52465;51.560;14.368;2023-03-12T08:13:47;8.40;;;7.93;;
65552;SDS011;52465;51.560;14.368;2023-03-12T08:16:12;7.75;;;7.35;;
65552;SDS011;52465;51.560;14.368;2023-03-12T08:18:38;8.02;;;7.53;;
65552;SDS011;52465;51.560;14.368;2023-03-12T08:21:04;7.80;;;7.40;;
65552;SDS011;52465;51.560;14.368;2023-03-12T08:23:30;8.13;;;7.63;;
65552;SDS011;52465;51.560;14.368;2023-03-12T08:25:57;7.75;;;7.35;;
65552;SDS011;52465;51.560;14.368;2023-03-12T08:28:23;7.80;;;7.40;;
65552;SDS011;52465;51.560;14.368;2023-03-12T08:30:50;8.13;;;7.72;;
65552;SDS011;52465;51.560;14.368;2023-03-12T08:33:17;7.78;;;7.38;;
65552;SDS011;52465;51.560;14.368;2023-03-12T08:35:43;7.82;;;7.20;;
65552;SDS011;52465;51.560;14.368;2023-03-12T08:38:09;7.75;;;7.35;;
65552;SDS011;52465;51.560;14.368;2023-03-12T08:40:35;7.10;;;6.80;;
65552;SDS011;52465;51.560;14.368;2023-03-12T08:43:01;7.75;;;7.35;;
65552;SDS011;52465;51.560;14.368;2023-03-12T08:45:28;7.85;;;7.45;;
65552;SDS011;52465;51.560;14.368;2023-03-12T08:47:54;7.85;;;7.45;;
65552;SDS011;52465;51.560;14.368;2023-03-12T08:50:19;7.85;;;7.45;;
65552;SDS011;52465;51.560;14.368;2023-03-12T08:52:49;8.40;;;7.72;;
65552;SDS011;52465;51.560;14.368;2023-03-12T08:55:15;7.95;;;7.50;;
65552;SDS011;52465;51.560;14.368;2023-03-12T08:57:41;8.02;;;7.63;;
65552;SDS011;52465;51.560;14.368;2023-03-12T09:00:09;7.70;;;7.30;;
65552;SDS011;52465;51.560;14.368;2023-03-12T09:02:43;7.53;;;7.13;;
65552;SDS011;52465;51.560;14.368;2023-03-12T09:05:15;7.88;;;7.45;;
65552;SDS011;52465;51.560;14.368;2023-03-12T09:08:11;7.32;;;6.93;;
65552;SDS011;52465;51.560;14.368;2023-03-12T09:10:47;8.00;;;7.60;;
65552;SDS011;52465;51.560;14.368;2023-03-12T09:13:25;7.22;;;6.78;;
65552;SDS011;52465;51.560;14.368;2023-03-12T09:15:51;7.97;;;7.38;;
65552;SDS011;52465;51.560;14.368;2023-03-12T09:18:16;7.50;;;7.10;;
65552;SDS011;52465;51.560;14.368;2023-03-12T09:20:44;7.95;;;7.55;;
65552;SDS011;52465;51.560;14.368;2023-03-12T09:23:11;7.82;;;7.43;;
65552;SDS011;52465;51.560;14.368;2023-03-12T09:25:39;7.95;;;7.55;;
65552;SDS011;52465;51.560;14.368;2023-03-12T09:28:09;7.88;;;7.38;;
65552;SDS011;52465;51.560;14.368;2023-03-12T09:30:35;7.72;;;7.32;;
65552;SDS011;52465;51.560;14.368;2023-03-12T09:33:00;7.75;;;7.18;;
65552;SDS011;52465;51.560;14.368;2023-03-12T09:35:26;7.97;;;7.53;;
65552;SDS011;52465;51.560;14.368;2023-03-12T09:37:51;7.72;;;7.32;;
65552;SDS011;52465;51.560;14.368;2023-03-12T09:40:18;7.80;;;7.40;;
65552;SDS011;52465;51.560;14.368;2023-03-12T09:45:20;7.70;;;7.30;;
65552;SDS011;52465;51.560;14.368;2023-03-12T09:47:51;7.80;;;7.20;;
65552;SDS011;52465;51.560;14.368;2023-03-12T09:50:19;7.90;;;7.45;;
65552;SDS011;52465;51.560;14.368;2023-03-12T09:55:24;7.63;;;7.22;;
65552;SDS011;52465;51.560;14.368;2023-03-12T09:57:52;7.40;;;7.00;;
65552;SDS011;52465;51.560;14.368;2023-03-12T10:00:20;7.65;;;7.20;;
65552;SDS011;52465;51.560;14.368;2023-03-12T10:03:09;7.57;;;7.18;;
65552;SDS011;52465;51.560;14.368;2023-03-12T10:08:42;7.50;;;7.00;;
65552;SDS011;52465;51.560;14.368;2023-03-12T10:11:29;7.60;;;7.20;;
65552;SDS011;52465;51.560;14.368;2023-03-12T10:14:21;7.40;;;7.00;;
65552;SDS011;52465;51.560;14.368;2023-03-12T10:29:19;6.85;;;6.30;;
65552;SDS011;52465;51.560;14.368;2023-03-12T10:31:50;6.68;;;6.32;;
65552;SDS011;52465;51.560;14.368;2023-03-12T10:34:23;6.75;;;6.35;;
65552;SDS011;52465;51.560;14.368;2023-03-12T10:44:29;7.65;;;7.03;;
65552;SDS011;52465;51.560;14.368;2023-03-12T10:49:45;7.10;;;6.70;;
65552;SDS011;52465;51.560;14.368;2023-03-12T10:52:21;7.05;;;6.75;;
65552;SDS011;52465;51.560;14.368;2023-03-12T10:54:48;7.25;;;6.85;;
65552;SDS011;52465;51.560;14.368;2023-03-12T10:57:15;7.53;;;7.03;;
65552;SDS011;52465;51.560;14.368;2023-03-12T10:59:42;7.22;;;6.68;;
65552;SDS011;52465;51.560;14.368;2023-03-12T11:05:18;7.72;;;7.32;;
65552;SDS011;52465;51.560;14.368;2023-03-12T11:07:47;7.40;;;7.00;;
65552;SDS011;52465;51.560;14.368;2023-03-12T11:10:15;7.20;;;6.90;;
65552;SDS011;52465;51.560;14.368;2023-03-12T11:12:50;7.60;;;7.20;;
65552;SDS011;52465;51.560;14.368;2023-03-12T11:15:40;7.15;;;6.85;;
65552;SDS011;52465;51.560;14.368;2023-03-12T11:23:36;7.20;;;6.80;;
65552;SDS011;52465;51.560;14.368;2023-03-12T11:26:04;6.93;;;6.63;;
65552;SDS011;52465;51.560;14.368;2023-03-12T11:29:23;7.28;;;6.90;;
65552;SDS011;52465;51.560;14.368;2023-03-12T11:31:55;7.38;;;6.88;;
65552;SDS011;52465;51.560;14.368;2023-03-12T11:34:49;6.97;;;6.68;;
65552;SDS011;52465;51.560;14.368;2023-03-12T11:40:29;7.32;;;7.03;;
65552;SDS011;52465;51.560;14.368;2023-03-12T11:49:05;6.90;;;6.50;;
65552;SDS011;52465;51.560;14.368;2023-03-12T11:57:39;7.15;;;6.75;;
65552;SDS011;52465;51.560;14.368;2023-03-12T12:00:17;6.97;;;6.68;;
65552;SDS011;52465;51.560;14.368;2023-03-12T12:05:43;6.90;;;6.60;;
65552;SDS011;52465;51.560;14.368;2023-03-12T12:27:27;7.10;;;6.80;;
65552;SDS011;52465;51.560;14.368;2023-03-12T12:30:02;7.28;;;6.95;;
65552;SDS011;52465;51.560;14.368;2023-03-12T12:35:36;7.15;;;6.75;;
65552;SDS011;52465;51.560;14.368;2023-03-12T12:38:11;7.47;;;7.07;;
65552;SDS011;52465;51.560;14.368;2023-03-12T12:41:00;7.45;;;7.05;;
65552;SDS011;52465;51.560;14.368;2023-03-12T12:43:48;7.47;;;7.10;;
65552;SDS011;52465;51.560;14.368;2023-03-12T12:48:52;7.53;;;7.13;;
65552;SDS011;52465;51.560;14.368;2023-03-12T12:51:21;7.50;;;7.20;;
65552;SDS011;52465;51.560;14.368;2023-03-12T12:56:44;7.30;;;6.90;;
65552;SDS011;52465;51.560;14.368;2023-03-12T13:02:18;7.38;;;6.97;;
65552;SDS011;52465;51.560;14.368;2023-03-12T13:04:46;7.22;;;6.90;;
65552;SDS011;52465;51.560;14.368;2023-03-12T13:09:42;7.32;;;6.88;;
65552;SDS011;52465;51.560;14.368;2023-03-12T13:12:19;7.22;;;6.93;;
65552;SDS011;52465;51.560;14.368;2023-03-12T13:14:46;7.25;;;6.85;;
65552;SDS011;52465;51.560;14.368;2023-03-12T13:20:13;7.43;;;7.03;;
65552;SDS011;52465;51.560;14.368;2023-03-12T13:28:33;7.20;;;6.82;;
65552;SDS011;52465;51.560;14.368;2023-03-12T13:31:02;7.75;;;7.07;;
65552;SDS011;52465;51.560;14.368;2023-03-12T13:33:57;7.43;;;6.88;;
65552;SDS011;52465;51.560;14.368;2023-03-12T13:36:34;7.20;;;6.85;;
65552;SDS011;52465;51.560;14.368;2023-03-12T13:41:34;7.63;;;7.22;;
65552;SDS011;52465;51.560;14.368;2023-03-12T13:49:22;7.22;;;6.93;;
65552;SDS011;52465;51.560;14.368;2023-03-12T13:52:07;7.13;;;6.82;;
65552;SDS011;52465;51.560;14.368;2023-03-12T13:54:43;7.70;;;7.30;;
65552;SDS011;52465;51.560;14.368;2023-03-12T13:57:22;6.80;;;6.50;;
65552;SDS011;52465;51.560;14.368;2023-03-12T13:59:48;7.20;;;6.90;;
65552;SDS011;52465;51.560;14.368;2023-03-12T14:02:26;7.53;;;7.13;;
65552;SDS011;52465;51.560;14.368;2023-03-12T14:04:59;7.50;;;7.10;;
65552;SDS011;52465;51.560;14.368;2023-03-12T14:11:00;7.50;;;7.20;;
65552;SDS011;52465;51.560;14.368;2023-03-12T14:13:41;7.45;;;7.15;;
65552;SDS011;52465;51.560;14.368;2023-03-12T14:16:42;7.43;;;7.00;;
65552;SDS011;52465;51.560;14.368;2023-03-12T14:19:13;7.00;;;6.70;;
65552;SDS011;52465;51.560;14.368;2023-03-12T14:21:42;7.32;;;6.93;;
65552;SDS011;52465;51.560;14.368;2023-03-12T14:27:00;7.15;;;6.82;;
65552;SDS011;52465;51.560;14.368;2023-03-12T14:29:29;7.55;;;7.13;;
65552;SDS011;52465;51.560;14.368;2023-03-12T14:32:16;8.00;;;7.50;;
65552;SDS011;52465;51.560;14.368;2023-03-12T14:34:46;7.40;;;7.10;;
65552;SDS011;52465;51.560;14.368;2023-03-12T14:37:31;7.60;;;7.20;;
65552;SDS011;52465;51.560;14.368;2023-03-12T14:40:17;8.02;;;7.55;;
65552;SDS011;52465;51.560;14.368;2023-03-12T14:42:46;7.45;;;7.05;;
65552;SDS011;52465;51.560;14.368;2023-03-12T14:45:16;7.30;;;7.00;;
65552;SDS011;52465;51.560;14.368;2023-03-12T14:47:44;7.10;;;6.60;;
65552;SDS011;52465;51.560;14.368;2023-03-12T14:50:19;7.28;;;6.97;;
65552;SDS011;52465;51.560;14.368;2023-03-12T14:52:46;7.30;;;6.90;;
65552;SDS011;52465;51.560;14.368;2023-03-12T14:55:14;7.43;;;7.07;;
65552;SDS011;52465;51.560;14.368;2023-03-12T14:57:43;7.38;;;7.07;;
65552;SDS011;52465;51.560;14.368;2023-03-12T15:00:20;7.40;;;7.00;;
65552;SDS011;52465;51.560;14.368;2023-03-12T15:02:50;7.35;;;6.88;;
65552;SDS011;52465;51.560;14.368;2023-03-12T15:05:19;7.00;;;6.60;;
65552;SDS011;52465;51.560;14.368;2023-03-12T15:07:46;7.93;;;7.00;;
65552;SDS011;52465;51.560;14.368;2023-03-12T15:12:50;7.53;;;7.13;;
65552;SDS011;52465;51.560;14.368;2023-03-12T15:15:35;7.72;;;7.22;;
65552;SDS011;52465;51.560;14.368;2023-03-12T15:18:03;7.68;;;7.28;;
65552;SDS011;52465;51.560;14.368;2023-03-12T15:20:31;7.40;;;7.00;;
65552;SDS011;52465;51.560;14.368;2023-03-12T15:22:56;7.53;;;7.03;;
65552;SDS011;52465;51.560;14.368;2023-03-12T15:25:26;7.30;;;7.00;;
65552;SDS011;52465;51.560;14.368;2023-03-12T15:28:00;7.10;;;6.70;;
65552;SDS011;52465;51.560;14.368;2023-03-12T15:30:29;7.20;;;6.80;;
65552;SDS011;52465;51.560;14.368;2023-03-12T15:33:03;7.47;;;6.97;;
65552;SDS011;52465;51.560;14.368;2023-03-12T15:35:28;7.60;;;7.10;;
65552;SDS011;52465;51.560;14.368;2023-03-12T15:37:57;7.70;;;7.30;;
65552;SDS011;52465;51.560;14.368;2023-03-12T15:40:23;7.53;;;7.13;;
65552;SDS011;52465;51.560;14.368;2023-03-12T15:42:51;7.75;;;7.35;;
65552;SDS011;52465;51.560;14.368;2023-03-12T15:45:22;7.10;;;6.70;;
65552;SDS011;52465;51.560;14.368;2023-03-12T15:47:51;7.72;;;7.30;;
65552;SDS011;52465;51.560;14.368;2023-03-12T15:50:23;7.70;;;7.30;;
65552;SDS011;52465;51.560;14.368;2023-03-12T15:53:02;7.40;;;7.00;;
65552;SDS011;52465;51.560;14.368;2023-03-12T15:55:58;7.75;;;7.35;;
65552;SDS011;52465;51.560;14.368;2023-03-12T15:58:30;7.83;;;7.43;;
65552;SDS011;52465;51.560;14.368;2023-03-12T16:01:08;8.00;;;7.60;;
65552;SDS011;52465;51.560;14.368;2023-03-12T16:03:34;7.60;;;7.20;;
65552;SDS011;52465;51.560;14.368;2023-03-12T16:05:59;7.20;;;6.80;;
65552;SDS011;52465;51.560;14.368;2023-03-12T16:08:33;7.75;;;7.25;;
65552;SDS011;52465;51.560;14.368;2023-03-12T16:11:25;7.65;;;7.18;;
65552;SDS011;52465;51.560;14.368;2023-03-12T16:14:02;7.18;;;6.88;;
65552;SDS011;52465;51.560;14.368;2023-03-12T16:16:30;7.35;;;6.93;;
65552;SDS011;52465;51.560;14.368;2023-03-12T16:18:56;7.35;;;7.05;;
65552;SDS011;52465;51.560;14.368;2023-03-12T16:21:21;7.55;;;7.15;;
65552;SDS011;52465;51.560;14.368;2023-03-12T16:23:47;7.35;;;6.95;;
65552;SDS011;52465;51.560;14.368;2023-03-12T16:28:59;7.65;;;7.25;;
65552;SDS011;52465;51.560;14.368;2023-03-12T16:31:24;7.00;;;6.70;;
65552;SDS011;52465;51.560;14.368;2023-03-12T16:33:50;7.78;;;7.35;;
65552;SDS011;52465;51.560;14.368;2023-03-12T16:36:16;7.30;;;6.97;;
65552;SDS011;52465;51.560;14.368;2023-03-12T16:38:43;7.82;;;7.43;;
65552;SDS011;52465;51.560;14.368;2023-03-12T16:41:13;7.60;;;7.20;;
65552;SDS011;52465;51.560;14.368;2023-03-12T16:43:43;8.05;;;7.35;;
65552;SDS011;52465;51.560;14.368;2023-03-12T16:46:16;7.57;;;7.18;;
65552;SDS011;52465;51.560;14.368;2023-03-12T16:48:44;7.60;;;7.20;;
65552;SDS011;52465;51.560;14.368;2023-03-12T16:51:14;7.63;;;7.22;;
65552;SDS011;52465;51.560;14.368;2023-03-12T16:53:40;7.60;;;7.20;;
65552;SDS011;52465;51.560;14.368;2023-03-12T16:56:05;7.75;;;7.35;;
65552;SDS011;52465;51.560;14.368;2023-03-12T16:58:31;7.55;;;7.15;;